Hadar, Nebraska
Current Conditions -  °F | °C
As of 3:56 PM on Monday 22 Dec 2014 (Local Time) from KOFK Reporting Station
Overcast Overcast  
Wind Chill: 32°   Ceiling: 1000
Heat Index: 40°   Visibility: 9mi
Dew Point: 37°   Wind: 14mph
Humidity: 89%   Direction: 320°NW
Pressure: 29.43"   Gusts: NA
Location:  42.11°N, 97.45°W
Report Text: KOFK 222156Z AUTO 32012KT 9SM BKN010 BKN014 OVC021 04/03 A2943 RMK AO2 RAB31E39 SLP971 P0000 T00440028
Loading
Personal Weather Stations






























Interactive Weather Map New forecast layout! Learn more

10-Day Weather Forecast

Advertisements
Track Severe Weather on mobile